Time;durP1;ratioP1;P1;durP2;ratioP2;P2;SDS_P1;SDS_P2;PMS_P1;PMS_P2;Temp;Humidity;BMP_temperature;BMP_pressure;BME280_temperature;BME280_humidity;BME280_pressure;Samples;Min_cycle;Max_cycle;Signal;HPM_P1;HPM_P2
2021/09/06 01:09:42;;;;;;;21.88;14.18;;;12.20;99.90;;;;;;4938600;28;20464;-86
2021/09/06 03:19:04;;;;;;;8.65;6.40;;;11.10;99.90;;;;;;4738845;30;20686;-87
2021/09/06 04:37:10;;;;;;;27.48;16.15;;;10.40;99.90;;;;;;4848615;29;20044;-86
2021/09/06 04:48:21;;;;;;;21.05;13.00;;;10.40;99.90;;;;;;4845366;29;20145;-87
2021/09/06 05:14:23;;;;;;;25.85;18.58;;;10.40;99.90;;;;;;4823579;29;20053;-87
2021/09/06 05:54:55;;;;;;;24.08;16.17;;;10.60;99.90;;;;;;4884291;29;20055;-88
2021/09/06 05:57:27;;;;;;;22.05;15.68;;;10.60;99.90;;;;;;4890847;29;20053;-88
2021/09/06 05:59:57;;;;;;;23.90;16.58;;;10.70;99.90;;;;;;4871452;28;20402;-88
2021/09/06 06:02:26;;;;;;;22.60;16.67;;;10.70;99.90;;;;;;4947757;28;20034;-88
2021/09/06 06:04:55;;;;;;;23.60;17.35;;;10.80;99.90;;;;;;4947881;28;20038;-88
2021/09/06 06:07:21;;;;;;;23.67;17.05;;;10.80;99.90;;;;;;4947092;28;20038;-89
2021/09/06 06:09:48;;;;;;;27.08;17.27;;;10.80;99.90;;;;;;4964717;28;20045;-88
2021/09/06 06:12:14;;;;;;;25.23;17.50;;;10.90;99.90;;;;;;4949786;28;20073;-88
2021/09/06 06:14:40;;;;;;;25.73;18.17;;;10.90;99.90;;;;;;4964609;28;20076;-88
2021/09/06 06:17:07;;;;;;;24.10;15.60;;;11.00;99.90;;;;;;4971336;28;20042;-88
2021/09/06 06:19:33;;;;;;;22.17;16.38;;;11.10;99.90;;;;;;4958898;28;20038;-87
2021/09/06 06:21:59;;;;;;;20.88;16.25;;;11.10;99.90;;;;;;4962397;28;20050;-88
2021/09/06 06:24:28;;;;;;;19.98;15.52;;;11.10;99.90;;;;;;4960688;28;20509;-89
2021/09/06 06:26:56;;;;;;;23.52;17.90;;;11.20;99.90;;;;;;4963009;28;20052;-88
2021/09/06 06:29:23;;;;;;;17.08;14.75;;;11.20;99.90;;;;;;4961858;28;20447;-89
2021/09/06 06:31:54;;;;;;;19.75;16.80;;;11.30;99.90;;;;;;4958809;28;20046;-88
2021/09/06 06:34:23;;;;;;;20.75;15.40;;;11.40;99.90;;;;;;4961718;28;20041;-89
2021/09/06 06:36:49;;;;;;;29.15;22.80;;;11.50;99.90;;;;;;4964259;28;20531;-89
2021/09/06 06:39:17;;;;;;;24.33;20.15;;;11.50;99.90;;;;;;4944145;28;20046;-88
2021/09/06 06:41:46;;;;;;;27.13;21.55;;;11.60;99.90;;;;;;4964971;28;20253;-88
2021/09/06 06:44:18;;;;;;;24.92;21.20;;;11.70;99.90;;;;;;4954821;28;20042;-88
2021/09/06 06:46:44;;;;;;;26.33;20.02;;;11.70;99.90;;;;;;4949751;28;20053;-88
2021/09/06 06:49:10;;;;;;;25.30;20.30;;;11.80;99.90;;;;;;4958484;28;20038;-89
2021/09/06 06:51:39;;;;;;;32.30;24.13;;;11.90;99.90;;;;;;4955258;28;21917;-89
2021/09/06 06:54:05;;;;;;;24.70;18.50;;;12.00;99.90;;;;;;4931949;28;20707;-89
2021/09/06 06:56:31;;;;;;;36.15;25.02;;;12.10;99.90;;;;;;4964600;28;20053;-87
2021/09/06 06:58:57;;;;;;;46.65;31.98;;;12.20;99.90;;;;;;4963500;28;20090;-87
2021/09/06 07:01:23;;;;;;;51.63;32.95;;;12.20;99.90;;;;;;4954546;28;20052;-87
2021/09/06 07:03:54;;;;;;;57.88;36.08;;;12.30;99.90;;;;;;4965404;28;20546;-88
2021/09/06 07:06:21;;;;;;;42.50;29.45;;;12.40;99.90;;;;;;4951782;28;20512;-87
2021/09/06 07:08:47;;;;;;;40.90;29.42;;;12.50;99.90;;;;;;4966384;28;20380;-87
2021/09/06 07:11:13;;;;;;;51.80;33.83;;;12.60;99.90;;;;;;4973144;28;20158;-88
2021/09/06 07:13:39;;;;;;;53.88;35.88;;;12.80;99.90;;;;;;4962721;28;20046;-87
2021/09/06 07:16:13;;;;;;;50.67;34.78;;;12.90;99.90;;;;;;4963901;28;20038;-87
2021/09/06 07:18:41;;;;;;;51.17;33.60;;;13.00;99.90;;;;;;4951323;28;20053;-88
2021/09/06 07:21:12;;;;;;;39.42;28.27;;;13.20;99.90;;;;;;4966062;28;20540;-88
2021/09/06 07:23:38;;;;;;;39.80;28.17;;;13.30;99.90;;;;;;4967226;28;20041;-88
2021/09/06 07:26:05;;;;;;;38.10;25.25;;;13.50;99.90;;;;;;4948336;28;20034;-86
2021/09/06 07:28:34;;;;;;;37.30;24.75;;;13.60;99.90;;;;;;4964220;28;22094;-89
2021/09/06 07:31:08;;;;;;;36.10;24.17;;;13.80;99.90;;;;;;4943619;28;20041;-87
2021/09/06 07:33:47;;;;;;;39.20;25.98;;;13.90;99.90;;;;;;4949378;28;20066;-87
2021/09/06 07:36:13;;;;;;;39.10;24.55;;;14.00;99.90;;;;;;4950247;28;20057;-88
2021/09/06 07:38:51;;;;;;;34.60;22.60;;;14.20;99.90;;;;;;4961070;28;20112;-86
2021/09/06 07:41:40;;;;;;;34.45;21.90;;;14.30;99.90;;;;;;4964607;28;20367;-86
2021/09/06 07:44:07;;;;;;;30.52;19.80;;;14.50;99.90;;;;;;4963446;28;20076;-87
2021/09/06 07:46:33;;;;;;;34.75;21.00;;;14.70;99.90;;;;;;4973943;28;20137;-89
2021/09/06 07:49:09;;;;;;;28.70;18.70;;;14.90;99.90;;;;;;4955121;28;20044;-89
2021/09/06 07:51:52;;;;;;;29.02;18.70;;;15.00;99.90;;;;;;4965397;28;20053;-88
2021/09/06 07:54:21;;;;;;;26.58;17.05;;;15.20;99.90;;;;;;4959846;28;20076;-88
2021/09/06 07:56:48;;;;;;;28.05;17.98;;;15.30;99.90;;;;;;4971328;28;20037;-88
2021/09/06 07:59:58;;;;;;;27.17;18.38;;;15.40;99.90;;;;;;4947321;28;20037;-88
2021/09/06 08:02:50;;;;;;;25.95;17.08;;;15.50;99.90;;;;;;4968596;28;20553;-88
2021/09/06 08:05:21;;;;;;;27.38;18.25;;;15.70;99.90;;;;;;4952052;28;20053;-87
2021/09/06 08:07:48;;;;;;;26.08;16.80;;;15.80;99.90;;;;;;4967784;28;20050;-88
2021/09/06 08:10:19;;;;;;;23.48;16.73;;;15.90;99.90;;;;;;4975342;28;20046;-87
2021/09/06 08:12:58;;;;;;;31.05;17.08;;;15.90;99.90;;;;;;4971262;28;20458;-87
2021/09/06 08:15:28;;;;;;;27.20;17.20;;;16.00;99.90;;;;;;4964180;28;20088;-88
2021/09/06 08:17:58;;;;;;;30.08;16.80;;;16.00;99.90;;;;;;4962740;28;20457;-89
2021/09/06 08:20:27;;;;;;;27.42;16.08;;;16.10;99.90;;;;;;4973540;28;20243;-87
2021/09/06 08:22:53;;;;;;;25.58;15.60;;;16.10;99.90;;;;;;4969271;28;20052;-88
2021/09/06 08:25:34;;;;;;;25.08;15.75;;;16.10;99.90;;;;;;4964161;28;21435;-88
2021/09/06 08:28:03;;;;;;;25.25;16.35;;;16.20;99.90;;;;;;4947705;28;20042;-87
2021/09/06 08:31:09;;;;;;;;;;;;;;;;;;;;;
2021/09/06 08:33:48;;;;;;;27.17;15.45;;;16.20;99.90;;;;;;4963097;28;20470;-89
2021/09/06 08:36:41;;;;;;;21.30;14.10;;;16.40;99.90;;;;;;4967712;28;21041;-88
2021/09/06 08:39:07;;;;;;;19.70;14.10;;;16.50;99.90;;;;;;4962761;28;20041;-90
2021/09/06 08:41:50;;;;;;;;;;;;;;;;;;;;;
2021/09/06 08:44:42;;;;;;;21.80;13.68;;;16.70;99.90;;;;;;4988163;28;20072;-91
2021/09/06 08:47:28;;;;;;;23.77;14.93;;;16.70;99.90;;;;;;4975337;28;20091;-89
2021/09/06 08:50:10;;;;;;;21.92;13.43;;;16.80;99.90;;;;;;4962027;28;20057;-90
2021/09/06 08:56:31;;;;;;;24.92;14.15;;;16.90;99.90;;;;;;4966397;28;20267;-90
2021/09/06 08:59:33;;;;;;;22.70;14.10;;;17.00;99.80;;;;;;4969041;28;20046;-91
2021/09/06 09:02:44;;;;;;;;;;;;;;;;;;;;;
2021/09/06 09:05:20;;;;;;;21.17;13.98;;;17.20;99.00;;;;;;4974711;28;20050;-87
2021/09/06 09:07:47;;;;;;;19.48;13.25;;;17.40;99.10;;;;;;4963767;28;20048;-87
2021/09/06 09:10:29;;;;;;;26.52;14.32;;;17.40;99.10;;;;;;4957034;28;20026;-88
2021/09/06 09:13:07;;;;;;;20.55;12.98;;;17.50;99.30;;;;;;4961246;28;20030;-87
2021/09/06 09:15:37;;;;;;;22.27;14.05;;;17.60;98.70;;;;;;4964278;28;20454;-87
2021/09/06 09:18:06;;;;;;;18.80;12.93;;;17.70;98.60;;;;;;4970550;28;20052;-87
2021/09/06 09:21:18;;;;;;;19.35;12.30;;;17.70;98.30;;;;;;4983830;28;20057;-88
2021/09/06 09:23:50;;;;;;;18.98;12.57;;;17.80;98.30;;;;;;4970026;28;20119;-87
2021/09/06 09:29:22;;;;;;;16.60;11.40;;;17.80;97.70;;;;;;4944469;28;20128;-87
2021/09/06 09:32:32;;;;;;;21.05;11.23;;;17.80;97.20;;;;;;4967744;28;20033;-90
2021/09/06 09:35:36;;;;;;;20.17;11.57;;;17.80;96.50;;;;;;4903756;28;20048;-88
2021/09/06 09:38:34;;;;;;;16.55;10.43;;;17.80;96.50;;;;;;4925053;28;20079;-88
2021/09/06 09:41:12;;;;;;;14.82;10.48;;;17.90;96.40;;;;;;4894817;28;20138;-87
2021/09/06 09:43:38;;;;;;;18.20;11.23;;;17.90;96.60;;;;;;4894129;28;20549;-87
2021/09/06 09:46:07;;;;;;;18.20;11.15;;;18.00;96.80;;;;;;4908839;28;20046;-87
2021/09/06 09:48:36;;;;;;;18.20;12.40;;;18.00;97.40;;;;;;4970381;28;20692;-90
2021/09/06 09:51:02;;;;;;;18.00;11.50;;;18.00;96.70;;;;;;4932435;28;20088;-86
2021/09/06 09:53:32;;;;;;;20.35;11.48;;;18.10;96.70;;;;;;4955750;28;20038;-87
2021/09/06 09:56:09;;;;;;;18.00;11.95;;;18.10;96.30;;;;;;4966630;28;20034;-87
2021/09/06 09:58:35;;;;;;;21.20;12.15;;;18.10;96.10;;;;;;4968282;28;20097;-86
2021/09/06 10:01:03;;;;;;;15.98;10.95;;;18.20;96.10;;;;;;4961701;28;20037;-87
2021/09/06 10:03:34;;;;;;;17.58;10.82;;;18.20;95.90;;;;;;4948298;28;20042;-89
2021/09/06 10:06:01;;;;;;;17.33;10.20;;;18.20;96.10;;;;;;4971355;28;20041;-86
2021/09/06 10:08:28;;;;;;;18.65;11.45;;;18.30;95.50;;;;;;4962713;28;20041;-87
2021/09/06 10:10:59;;;;;;;14.98;10.35;;;18.40;95.30;;;;;;4948992;28;20068;-87
2021/09/06 10:13:26;;;;;;;15.88;10.77;;;18.50;95.40;;;;;;4948893;28;21803;-86
2021/09/06 10:16:02;;;;;;;17.90;10.60;;;18.50;95.60;;;;;;4947897;28;20065;-87
2021/09/06 10:18:36;;;;;;;17.15;9.45;;;18.60;94.90;;;;;;4962109;28;20500;-87
2021/09/06 10:21:17;;;;;;;16.52;10.27;;;18.60;94.40;;;;;;4975153;28;20038;-87
2021/09/06 10:23:57;;;;;;;17.30;9.82;;;18.70;94.20;;;;;;4971621;28;20547;-88
2021/09/06 10:27:07;;;;;;;14.93;8.82;;;18.80;94.50;;;;;;4958353;28;20044;-88
2021/09/06 10:29:40;;;;;;;15.55;10.32;;;18.80;93.80;;;;;;4965022;28;21778;-87
2021/09/06 10:32:06;;;;;;;15.25;9.93;;;18.80;93.50;;;;;;4952491;28;20068;-87
2021/09/06 10:34:32;;;;;;;13.73;10.07;;;18.80;93.40;;;;;;4953710;28;20527;-86
2021/09/06 10:37:01;;;;;;;13.40;9.02;;;18.90;93.40;;;;;;4965030;28;20042;-86
2021/09/06 10:39:28;;;;;;;13.18;8.60;;;19.00;93.50;;;;;;4971637;28;20446;-86
2021/09/06 10:42:01;;;;;;;13.05;9.02;;;19.00;93.80;;;;;;4967131;28;20042;-86
2021/09/06 10:44:35;;;;;;;15.40;9.10;;;19.10;93.90;;;;;;4967737;28;20492;-87
2021/09/06 10:47:22;;;;;;;11.45;8.25;;;19.20;93.90;;;;;;4985998;28;20054;-88
2021/09/06 10:49:52;;;;;;;;;;;19.20;92.50;;;;;;4985859;28;20046;-89
2021/09/06 10:52:20;;;;;;;13.00;7.28;;;19.20;91.50;;;;;;4966969;28;20466;-87
2021/09/06 10:54:51;;;;;;;14.95;8.43;;;19.30;91.90;;;;;;4971417;28;20049;-91
2021/09/06 10:57:17;;;;;;;11.82;7.85;;;19.40;91.30;;;;;;4967479;28;20049;-86
2021/09/06 10:59:46;;;;;;;10.82;7.82;;;19.50;91.00;;;;;;4946209;28;20412;-87
2021/09/06 11:02:16;;;;;;;11.80;7.20;;;19.50;91.20;;;;;;4956997;28;20038;-87
2021/09/06 11:04:44;;;;;;;13.50;8.02;;;19.50;91.50;;;;;;4960488;28;20112;-87
2021/09/06 11:07:27;;;;;;;13.98;8.05;;;19.60;91.10;;;;;;4973180;28;20133;-92
2021/09/06 11:09:53;;;;;;;13.50;7.97;;;19.70;90.20;;;;;;4945818;28;20034;-86
2021/09/06 11:12:19;;;;;;;14.48;8.05;;;19.80;90.20;;;;;;4964871;28;20048;-87
2021/09/06 11:14:57;;;;;;;11.05;7.80;;;19.90;90.20;;;;;;4950339;28;20045;-90
2021/09/06 11:17:25;;;;;;;11.95;7.15;;;20.00;90.90;;;;;;4978575;28;20599;-88
2021/09/06 11:19:55;;;;;;;14.45;7.35;;;20.10;90.00;;;;;;4967174;28;20057;-88
2021/09/06 11:22:26;;;;;;;12.10;7.60;;;20.10;87.60;;;;;;4974991;28;20053;-88
2021/09/06 11:25:03;;;;;;;11.10;7.60;;;20.10;86.60;;;;;;4967973;28;20045;-88
2021/09/06 11:27:31;;;;;;;9.10;6.68;;;20.20;84.00;;;;;;4975152;28;20140;-86
2021/09/06 11:29:59;;;;;;;11.88;6.65;;;20.20;84.10;;;;;;4965298;28;20030;-88
2021/09/06 11:32:51;;;;;;;10.55;6.32;;;20.30;82.90;;;;;;4966007;28;20038;-89
2021/09/06 11:35:25;;;;;;;8.00;6.57;;;20.30;84.50;;;;;;4962232;28;20747;-87
2021/09/06 11:37:53;;;;;;;10.85;6.80;;;20.30;83.10;;;;;;4958349;28;20301;-87
2021/09/06 11:40:54;;;;;;;13.10;7.72;;;20.30;82.40;;;;;;4975824;28;20114;-89
2021/09/06 11:43:58;;;;;;;12.93;7.20;;;20.40;83.40;;;;;;4962620;28;20081;-88
2021/09/06 11:46:40;;;;;;;11.32;7.40;;;20.30;85.60;;;;;;4960484;28;20058;-87
2021/09/06 11:49:07;;;;;;;11.30;7.05;;;20.30;84.70;;;;;;4971170;28;20192;-87
2021/09/06 11:51:33;;;;;;;12.85;7.30;;;20.30;85.30;;;;;;4963684;28;20054;-88
2021/09/06 11:54:05;;;;;;;9.25;7.35;;;20.30;85.60;;;;;;4963094;28;20272;-87
2021/09/06 11:56:31;;;;;;;9.77;6.75;;;20.30;86.70;;;;;;4984979;28;20083;-88
2021/09/06 11:59:02;;;;;;;10.02;7.32;;;20.30;85.70;;;;;;4950679;28;20129;-88
2021/09/06 12:01:28;;;;;;;11.38;7.18;;;20.30;84.30;;;;;;4960307;28;20104;-87
2021/09/06 12:04:07;;;;;;;10.65;7.20;;;20.30;85.20;;;;;;4962109;28;20264;-87
2021/09/06 12:06:33;;;;;;;9.45;7.15;;;20.30;83.30;;;;;;4968108;28;20046;-87
2021/09/06 12:09:03;;;;;;;9.73;6.65;;;20.30;83.10;;;;;;4965998;28;20041;-88
2021/09/06 12:12:08;;;;;;;;;;;;;;;;;;;;;
2021/09/06 12:15:15;;;;;;;9.65;6.30;;;20.30;82.20;;;;;;4961170;28;20049;-88
2021/09/06 12:18:26;;;;;;;10.57;6.18;;;20.30;84.30;;;;;;4975060;28;20400;-89
2021/09/06 12:21:01;;;;;;;10.85;7.32;;;20.30;84.00;;;;;;4976828;28;20037;-89
2021/09/06 12:24:12;;;;;;;9.20;6.45;;;20.30;83.00;;;;;;4963892;28;20038;-89
2021/09/06 12:26:48;;;;;;;9.50;7.20;;;20.30;84.60;;;;;;4978010;28;20561;-87
2021/09/06 12:29:34;;;;;;;9.63;7.15;;;20.30;83.40;;;;;;4971550;28;20159;-89
2021/09/06 12:32:02;;;;;;;10.98;6.90;;;20.30;81.50;;;;;;4967699;28;20033;-88
2021/09/06 12:34:37;;;;;;;10.63;6.90;;;20.40;82.60;;;;;;4964456;28;20045;-88
2021/09/06 12:37:07;;;;;;;13.57;6.63;;;20.50;81.00;;;;;;4965754;28;20041;-88
2021/09/06 12:39:37;;;;;;;13.70;7.53;;;20.50;82.50;;;;;;4972492;28;20069;-87
2021/09/06 12:42:03;;;;;;;10.48;7.10;;;20.60;81.00;;;;;;4964575;28;20349;-88
2021/09/06 12:44:34;;;;;;;10.07;7.13;;;20.70;79.40;;;;;;4961669;28;20049;-88
2021/09/06 12:47:02;;;;;;;12.15;7.07;;;20.80;80.00;;;;;;4961153;28;20133;-86
2021/09/06 12:49:28;;;;;;;12.45;6.57;;;20.90;79.40;;;;;;4962985;28;20038;-88
2021/09/06 12:51:55;;;;;;;11.05;6.97;;;21.00;78.50;;;;;;4961774;28;20030;-87
2021/09/06 12:54:21;;;;;;;10.27;7.40;;;21.00;78.20;;;;;;4968128;28;20037;-88
2021/09/06 12:56:47;;;;;;;10.50;7.70;;;21.00;77.40;;;;;;4958913;28;20038;-88
2021/09/06 12:59:13;;;;;;;10.00;6.57;;;21.10;76.50;;;;;;4948203;28;20322;-86
2021/09/06 13:01:40;;;;;;;12.25;7.57;;;21.10;77.60;;;;;;4944661;28;20077;-90
2021/09/06 13:04:05;;;;;;;12.88;7.00;;;21.20;77.10;;;;;;4968813;28;20057;-87
2021/09/06 13:06:31;;;;;;;9.88;6.63;;;21.20;75.60;;;;;;4948754;28;20049;-90
2021/09/06 13:08:57;;;;;;;10.23;7.28;;;21.20;76.20;;;;;;4963336;28;20041;-88
2021/09/06 13:11:23;;;;;;;11.98;6.95;;;21.20;77.90;;;;;;4973313;28;20247;-87
2021/09/06 13:13:49;;;;;;;8.32;6.55;;;21.20;79.80;;;;;;4938184;28;20369;-87
2021/09/06 13:16:15;;;;;;;12.25;6.68;;;21.20;80.30;;;;;;4946979;28;20057;-87
2021/09/06 13:18:41;;;;;;;9.30;6.43;;;21.20;81.40;;;;;;4945466;28;20045;-88
2021/09/06 13:21:10;;;;;;;10.13;6.30;;;21.20;78.50;;;;;;4976015;28;20603;-88
2021/09/06 13:23:54;;;;;;;8.88;6.65;;;21.30;80.60;;;;;;4949620;28;20034;-89
2021/09/06 13:26:26;;;;;;;13.35;6.07;;;21.50;77.40;;;;;;4974241;28;20044;-89
2021/09/06 13:28:52;;;;;;;8.85;6.20;;;21.60;78.90;;;;;;4950214;28;20130;-88
2021/09/06 13:31:18;;;;;;;8.48;6.22;;;21.60;78.30;;;;;;4943115;28;20124;-88
2021/09/06 13:33:44;;;;;;;9.15;6.10;;;21.50;78.70;;;;;;4943546;28;20038;-89
2021/09/06 13:36:10;;;;;;;10.65;6.60;;;21.50;78.00;;;;;;4938047;28;20507;-89
2021/09/06 13:38:36;;;;;;;7.63;5.57;;;21.40;77.40;;;;;;4942440;28;20164;-88
2021/09/06 13:41:02;;;;;;;10.45;6.10;;;21.40;74.60;;;;;;4953531;28;20050;-88
2021/09/06 13:43:28;;;;;;;10.10;6.30;;;21.50;75.10;;;;;;4959727;28;20049;-89
2021/09/06 13:45:58;;;;;;;9.25;6.53;;;21.60;75.80;;;;;;4970280;28;20877;-88
2021/09/06 13:48:23;;;;;;;9.25;6.53;;;21.60;73.90;;;;;;4959925;28;20034;-88
2021/09/06 13:50:49;;;;;;;10.30;6.15;;;21.60;73.60;;;;;;4966590;28;20112;-87
2021/09/06 13:53:15;;;;;;;10.95;7.25;;;21.60;73.70;;;;;;4929714;28;21253;-87
2021/09/06 13:55:41;;;;;;;8.93;5.68;;;21.50;73.90;;;;;;4946928;28;20050;-88
2021/09/06 13:58:10;;;;;;;9.52;6.70;;;21.50;73.30;;;;;;4947597;28;20068;-88
2021/09/06 14:00:36;;;;;;;7.80;6.22;;;21.50;74.90;;;;;;4943048;28;20052;-88
2021/09/06 14:03:02;;;;;;;9.65;6.60;;;21.80;75.00;;;;;;4961877;28;20038;-87
2021/09/06 14:05:27;;;;;;;10.43;6.85;;;21.90;74.80;;;;;;4944512;28;20816;-88
2021/09/06 14:07:53;;;;;;;8.10;6.35;;;21.90;75.10;;;;;;4930466;28;20050;-87
2021/09/06 14:10:19;;;;;;;10.55;6.68;;;22.10;74.00;;;;;;4953707;28;20126;-88
2021/09/06 14:12:48;;;;;;;7.63;6.15;;;22.10;71.80;;;;;;4935854;28;20115;-88
2021/09/06 14:15:14;;;;;;;10.85;6.72;;;22.30;70.70;;;;;;4933648;28;20041;-88
2021/09/06 14:17:39;;;;;;;9.10;6.20;;;22.30;70.70;;;;;;4939291;28;20038;-88
2021/09/06 14:20:15;;;;;;;8.77;6.10;;;22.40;71.90;;;;;;4958144;28;20034;-88
2021/09/06 14:22:48;;;;;;;9.57;6.18;;;22.30;72.20;;;;;;4966428;28;20042;-86
2021/09/06 14:25:14;;;;;;;12.80;6.78;;;22.20;70.70;;;;;;4945677;28;20079;-87
2021/09/06 14:27:40;;;;;;;9.18;5.88;;;22.10;69.20;;;;;;4970536;28;21931;-88
2021/09/06 14:30:07;;;;;;;9.70;6.00;;;22.10;70.70;;;;;;4980121;28;20135;-86
2021/09/06 14:32:33;;;;;;;10.20;6.05;;;22.00;71.50;;;;;;4964188;28;20046;-87
2021/09/06 14:34:59;;;;;;;7.85;6.03;;;22.00;71.80;;;;;;4963751;28;20038;-86
2021/09/06 14:37:25;;;;;;;8.32;6.43;;;21.90;70.40;;;;;;4962854;28;20562;-88
2021/09/06 14:39:50;;;;;;;9.02;6.28;;;21.80;70.10;;;;;;4980233;28;20073;-88
2021/09/06 14:42:16;;;;;;;9.60;6.28;;;21.90;69.60;;;;;;4959937;28;20104;-88
2021/09/06 14:45:17;;;;;;;8.55;6.38;;;21.80;69.40;;;;;;4951811;28;20180;-88
2021/09/06 14:47:44;;;;;;;9.82;6.38;;;21.90;70.40;;;;;;4915976;28;20050;-87
2021/09/06 14:50:15;;;;;;;9.00;6.45;;;21.80;69.70;;;;;;4948086;28;20092;-88
2021/09/06 14:52:43;;;;;;;10.27;6.63;;;21.80;70.10;;;;;;4939131;28;20046;-88
2021/09/06 14:55:12;;;;;;;9.82;7.30;;;21.80;71.20;;;;;;4970989;28;20594;-86
2021/09/06 14:57:44;;;;;;;11.20;6.57;;;21.70;70.00;;;;;;4960516;28;20156;-88
2021/09/06 15:00:11;;;;;;;;;;;21.80;71.70;;;;;;4989411;28;20978;-87
2021/09/06 15:02:37;;;;;;;7.93;6.18;;;21.70;71.70;;;;;;4975170;28;19925;-88
2021/09/06 15:05:03;;;;;;;8.63;6.35;;;21.60;72.30;;;;;;4971713;28;20077;-88
2021/09/06 15:07:29;;;;;;;9.40;6.85;;;21.60;71.70;;;;;;4957750;28;20043;-88
2021/09/06 15:10:18;;;;;;;10.55;7.05;;;21.60;71.70;;;;;;4973702;28;20030;-88
2021/09/06 15:12:44;;;;;;;12.63;6.72;;;21.60;72.20;;;;;;4959642;28;20081;-88
2021/09/06 15:15:22;;;;;;;13.63;7.45;;;21.60;72.40;;;;;;4961948;28;20132;-88
2021/09/06 15:17:48;;;;;;;10.02;6.75;;;21.60;70.30;;;;;;4941600;28;20038;-88
2021/09/06 15:20:14;;;;;;;10.40;6.45;;;21.60;71.80;;;;;;4978982;28;20053;-88
2021/09/06 15:22:42;;;;;;;10.63;7.68;;;21.60;71.10;;;;;;4976058;28;20133;-87
2021/09/06 15:25:16;;;;;;;10.73;6.85;;;21.60;71.00;;;;;;4971842;28;20053;-88
2021/09/06 15:28:13;;;;;;;10.55;7.28;;;21.60;70.90;;;;;;4981411;28;20179;-88
2021/09/06 15:30:46;;;;;;;9.27;6.70;;;21.60;71.50;;;;;;4951764;28;20053;-88
2021/09/06 15:33:17;;;;;;;10.57;7.57;;;21.60;71.60;;;;;;4976472;28;20042;-89
2021/09/06 15:35:46;;;;;;;10.98;6.53;;;21.80;71.90;;;;;;4974738;28;20044;-89
